Private Wetterstation Nrnberg - Katzwang
Wetterdaten: Juni 2011
Datum Temp. A. Feuchte A. Luftdruck Regen Wind Richtung Taupunkt Windchill Windben
01.06.2011 11,7 C 88 % 1022 hPa 26,4 l/m 3,0 km/h N-NO 9,7 C 11,6 C 4,1 km/h
02.06.2011 17,7 C 56 % 1026 hPa 0,0 l/m 8,6 km/h NO 8,4 C 16,7 C 9,6 km/h
03.06.2011 21,4 C 60 % 1022 hPa 0,0 l/m 9,4 km/h O 13,1 C 20,6 C 14,3 km/h
04.06.2011 23,4 C 65 % 1012 hPa 0,0 l/m 7,3 km/h O 16,2 C 22,8 C 8,4 km/h
05.06.2011 21,0 C 75 % 1006 hPa 13,5 l/m 4,6 km/h NO 16,1 C 20,8 C 5,6 km/h
06.06.2011 20,3 C 75 % 1004 hPa 7,8 l/m 2,7 km/h NO 15,3 C 19,8 C 3,7 km/h
07.06.2011 21,8 C 69 % 1003 hPa 0,0 l/m 3,8 km/h O 15,5 C 21,4 C 4,8 km/h
08.06.2011 16,5 C 82 % 1006 hPa 5,7 l/m 3,3 km/h W-NW 13,2 C 16,3 C 4,3 km/h
09.06.2011 15,5 C 73 % 1014 hPa 0,0 l/m 2,1 km/h W-NW 10,6 C 15,5 C 3,1 km/h
10.06.2011 16,3 C 73 % 1014 hPa 0,0 l/m 1,0 km/h NO 11,3 C 16,3 C 2,0 km/h
11.06.2011 15,8 C 75 % 1015 hPa 2,6 l/m 0,0 km/h W-NW 11,3 C 15,8 C 1,0 km/h
12.06.2011 17,7 C 64 % 1016 hPa 0,0 l/m 1,7 km/h N-NO 10,1 C 17,6 C 2,7 km/h
13.06.2011 18,5 C 66 % 1015 hPa 0,0 l/m 3,3 km/h W-NW 11,9 C 18,1 C 4,3 km/h
14.06.2011 19,7 C 77 % 1016 hPa 0,0 l/m 2,7 km/h W-NW 15,5 C 19,6 C 3,7 km/h
15.06.2011 20,5 C 73 % 1015 hPa 0,0 l/m 0,0 km/h NO 15,2 C 20,5 C 1,0 km/h
16.06.2011 20,8 C 75 % 1012 hPa 12,9 l/m 0,3 km/h W-NW 15,2 C 20,8 C 1,4 km/h
17.06.2011 19,9 C 69 % 1010 hPa 2,6 l/m 6,8 km/h O 13,8 C 19,2 C 7,8 km/h
18.06.2011 15,1 C 84 % 1008 hPa 6,2 l/m 8,0 km/h W-NW 12,3 C 14,0 C 9,0 km/h
19.06.2011 14,4 C 69 % 1012 hPa 3,1 l/m 13,7 km/h W-NW 8,7 C 11,8 C 21,2 km/h
20.06.2011 15,2 C 81 % 1014 hPa 5,7 l/m 1,7 km/h W-NW 11,8 C 15,1 C 2,7 km/h
21.06.2011 20,3 C 75 % 1014 hPa 0,0 l/m 1,2 km/h W-NW 15,5 C 20,3 C 2,2 km/h
22.06.2011 20,2 C 75 % 1013 hPa 4,1 l/m 5,6 km/h W-NW 14,9 C 19,7 C 6,6 km/h
23.06.2011 18,4 C 65 % 1015 hPa 0,0 l/m 0,0 km/h W-NW 11,3 C 18,4 C 1,0 km/h
24.06.2011 16,5 C 60 % 1020 hPa 0,0 l/m 8,4 km/h W-NW 8,2 C 15,9 C 13,5 km/h
25.06.2011 14,9 C 73 % 1023 hPa 0,0 l/m 2,0 km/h W-NW 9,9 C 14,6 C 3,0 km/h
26.06.2011 19,5 C 74 % 1022 hPa 0,0 l/m 0,0 km/h N-NO 14,6 C 19,5 C 1,0 km/h
27.06.2011 22,9 C 62 % 1018 hPa 0,0 l/m 3,8 km/h O-NO 14,8 C 22,8 C 4,8 km/h
28.06.2011 24,4 C 58 % 1015 hPa 0,0 l/m 5,0 km/h O 14,9 C 24,3 C 6,0 km/h
29.06.2011 23,9 C 61 % 1013 hPa 0,0 l/m 7,8 km/h N-NO 15,1 C 23,2 C 8,9 km/h
30.06.2011 15,5 C 69 % 1018 hPa 10,4 l/m 4,1 km/h W-NW 9,7 C 14,9 C 5,1 km/h
Min-Datum 11.06.11 28.06.11 07.06.11 12 Tage 01.06.11 - 24.06.11 18.06.11 01.06.11
Min-Zeit 05:30 17:00 22:30 - 00:00 - 16:20 23:50 00:00
Minimum 10,1 C 34 % 1001 hPa - 0,0 km/h - 5,2 C 4,6 C 1,0 km/h
Max-Datum 29.06.11 01.06.11 02.06.11 01.06.11 05.06.11 - 05.06.11 29.06.11 19.06.11
Max-Zeit 14:50 07:20 09:30 02:30 14:50 - 18:00 14:50 18:00
Maximum 32,5 C 93 % 1027 hPa 26,4 l/m 36,9 km/h
NO
- 18,6 C 32,5 C 73,5 km/h
W-NW
Durchschnitt 18,7 C 71 % 1014 hPa #101,0 l/m 4,1 km/h W-NW 12,8 C 18,3 C 5,6 km/h

Durchschnitt Minimum Temp.13,4 C
Durchschnitt Maximum Temp.24,5 C